Flight Track Log - Related Links

Times and Time Zones

All times are in EDT time to prevent confusion due to time zone crossing. See the POE397 flight status page for this flight to view local times or setup timezone preferences in your user account.

Time Position Orientation Groundspeed Altitude Reporting Facility
EDT Latitude Longitude Course Direction KTS MPH feet Rate Location/Type
Fri 11:45:24 AM 43.6000 -79.4000 256° West 140 161 1,900  Level Toronto Center
Fri 11:46:24 AM 43.5833 -79.3167 105° East 200 230 3,800 1,050 Climbing Toronto Center
Fri 11:47:24 AM 43.5333 -79.2667 144° Southeast 250 288 4,000 1,200 Climbing Toronto Center
Fri 11:48:24 AM 43.4667 -79.2833 190° South 230 265 6,200 1,500 Climbing Toronto Center
Fri 11:49:24 AM 43.4333 -79.3500 235° Southwest 240 276 7,000 400 Climbing Toronto Center
Fri 11:50:00 AM 43.4204 -80.5235 256° West  Level Estimated
Fri 11:50:24 AM 43.4000 -79.4500 245° Southwest 250 288 7,000  Level Toronto Center
Fri 11:51:24 AM 43.3667 -79.5167 235° Southwest 250 288 7,000 150 Level Toronto Center
Fri 11:52:24 AM 43.3333 -79.6167 245° Southwest 260 299 7,300 450 Climbing Toronto Center
Fri 11:53:24 AM 43.3167 -79.7000 255° West 260 299 7,900 350 Climbing Toronto Center
Fri 11:54:24 AM 43.2667 -79.8000 236° Southwest 260 299 8,000 50 Climbing Toronto Center
Fri 11:55:24 AM 43.2500 -79.8833 255° West 260 299 8,000  Level Toronto Center
Fri 11:56:24 AM 43.2167 -79.9833 245° Southwest 260 299 8,000 400 Level Toronto Center
Fri 11:57:24 AM 43.1667 -80.0500 224° Southwest 260 299 8,800 1,250 Climbing Toronto Center
Fri 11:58:24 AM 43.1333 -80.1333 241° Southwest 260 299 10,500 1,750 Climbing Toronto Center
Fri 11:59:24 AM 43.0833 -80.2000 224° Southwest 250 288 12,300 1,650 Climbing Toronto Center
Fri 12:00:24 PM 43.0500 -80.2667 236° Southwest 250 288 13,800 1,500 Climbing Toronto Center
Fri 12:01:24 PM 43.0000 -80.3667 236° Southwest 250 288 15,300 1,350 Climbing Toronto Center
Fri 12:02:24 PM 42.9667 -80.4333 236° Southwest 250 288 16,500 1,300 Climbing Toronto Center
Fri 12:03:24 PM 42.9167 -80.5000 224° Southwest 250 288 17,900 1,300 Climbing Toronto Center
Fri 12:04:24 PM 42.8667 -80.5667 224° Southwest 250 288 19,100 1,118 Climbing Toronto Center
Fri 12:05:06 PM 42.8478 -80.6483 253° West 253 291 19,800 1,000 Climbing Cleveland Center
Fri 12:06:06 PM 42.8061 -80.7219 232° Southwest 253 291 20,800 1,000 Climbing Cleveland Center
Fri 12:07:06 PM 42.7622 -80.7953 231° Southwest 258 297 21,800 600 Climbing Cleveland Center
Fri 12:08:06 PM 42.7161 -80.8742 232° Southwest 258 297 22,000 100 Climbing Cleveland Center
Fri 12:09:06 PM 42.6806 -80.9731 244° Southwest 278 320 22,000 550 Level Cleveland Center
Fri 12:10:06 PM 42.6489 -81.0744 247° West 284 327 23,100 1,000 Climbing Cleveland Center
Fri 12:11:06 PM 42.6233 -81.1672 250° West 284 327 24,000 450 Climbing Cleveland Center
Fri 12:12:06 PM 42.5917 -81.2600 245° Southwest 279 321 24,000  Level Cleveland Center
Fri 12:13:06 PM 42.5597 -81.3639 247° West 285 328 24,000  Level Cleveland Center
Fri 12:14:06 PM 42.5297 -81.4567 246° West 297 342 24,000  Level Cleveland Center
Fri 12:15:06 PM 42.4978 -81.5631 248° West 307 353 24,000  Level Cleveland Center
Fri 12:16:06 PM 42.4633 -81.6694 246° West 313 360 24,000  Level Cleveland Center
Fri 12:17:06 PM 42.4311 -81.7814 249° West 313 360 24,000  Level Cleveland Center
Fri 12:18:06 PM 42.3964 -81.8906 247° West 313 360 24,000  Level Cleveland Center
Fri 12:19:06 PM 42.3619 -81.9967 246° West 313 360 24,000  Level Cleveland Center
Fri 12:20:06 PM 42.3272 -82.1081 247° West 313 360 24,000  Level Cleveland Center
Fri 12:21:06 PM 42.2881 -82.2250 246° West 313 360 24,000  Level Cleveland Center
Fri 12:22:06 PM 42.2531 -82.3336 247° West 313 360 24,000  Level Cleveland Center
Fri 12:23:06 PM 42.2181 -82.4419 246° West 313 360 24,000  Level Cleveland Center
Fri 12:24:06 PM 42.1828 -82.5531 247° West 313 360 24,000  Level Cleveland Center
Fri 12:25:06 PM 42.1517 -82.6586 248° West 313 360 24,000  Level Cleveland Center
Fri 12:26:06 PM 42.1081 -82.7692 242° Southwest 319 367 24,000  Level Cleveland Center
Fri 12:27:06 PM 42.0500 -82.8622 230° Southwest 319 367 24,000  Level Cleveland Center
Fri 12:28:06 PM 41.9936 -82.9608 232° Southwest 330 380 24,000  Level Cleveland Center
Fri 12:29:06 PM 41.9497 -83.0681 241° Southwest 335 386 24,000  Level Cleveland Center
Fri 12:30:06 PM 41.9200 -83.1814 251° West 330 380 24,000  Level Cleveland Center
Fri 12:31:06 PM 41.8883 -83.2944 249° West 330 380 24,000  Level Cleveland Center
Fri 12:32:06 PM 41.8564 -83.4017 248° West 324 373 24,000  Level Cleveland Center
Fri 12:33:06 PM 41.8203 -83.5144 247° West 324 373 24,000  Level Cleveland Center
Fri 12:34:06 PM 41.7883 -83.6244 249° West 324 373 24,000  Level Cleveland Center
Fri 12:35:06 PM 41.7561 -83.7314 248° West 324 373 24,000  Level Cleveland Center
Fri 12:36:06 PM 41.7239 -83.8439 249° West 324 373 24,000  Level Cleveland Center
Fri 12:37:06 PM 41.6914 -83.9536 248° West 324 373 24,000  Level Cleveland Center
Fri 12:38:06 PM 41.6569 -84.0631 247° West 324 373 24,000  Level Cleveland Center
Fri 12:39:06 PM 41.6244 -84.1722 248° West 324 373 24,000  Level Cleveland Center
Fri 12:39:49 PM 41.6092 -84.2289 250° West 320 368 24,000  Level Chicago Center
Fri 12:40:51 PM 41.5694 -84.3608 248° West 320 368 24,000  Level Chicago Center
Fri 12:41:53 PM 41.5350 -84.4700 247° West 320 368 24,000  Level Chicago Center
Fri 12:42:56 PM 41.5008 -84.5822 248° West 325 374 24,000  Level Chicago Center
Fri 12:43:58 PM 41.4817 -84.6950 257° West 319 367 24,000  Level Chicago Center
Fri 12:45:00 PM 41.4875 -84.8108 274° West 311 358 24,000  Level Chicago Center
Fri 12:46:02 PM 41.4917 -84.9267 273° West 315 362 24,000  Level Chicago Center
Fri 12:47:04 PM 41.4953 -85.0656 272° West 312 359 24,000  Level Chicago Center
Fri 12:48:06 PM 41.4992 -85.1831 273° West 314 361 24,000  Level Chicago Center
Fri 12:49:08 PM 41.5036 -85.3008 273° West 315 362 24,000 -629 Level Chicago Center
Fri 12:50:10 PM 41.5058 -85.4261 271° West 329 379 22,700 -1,403 Descending Chicago Center
Fri 12:51:12 PM 41.5108 -85.5608 273° West 353 406 21,100 -1,548 Descending Chicago Center
Fri 12:52:14 PM 41.5147 -85.6875 272° West 341 392 19,500 -1,500 Descending Chicago Center
Fri 12:53:16 PM 41.5189 -85.8178 272° West 346 398 18,000 -1,500 Descending Chicago Center
Fri 12:54:18 PM 41.5225 -85.9475 272° West 349 402 16,400 -1,694 Descending Chicago Center
Fri 12:55:20 PM 41.5244 -86.1017 271° West 347 399 14,500 -1,584 Descending Chicago Center
Fri 12:56:23 PM 41.5236 -86.2233 270° West 334 384 13,100 -1,344 Descending Chicago Center
Fri 12:57:25 PM 41.5222 -86.3339 269° West 300 345 11,700 -1,016 Descending Chicago Center
Fri 12:58:27 PM 41.5228 -86.4406 270° West 289 333 11,000 -339 Descending Chicago Center
Fri 12:59:29 PM 41.5211 -86.5519 269° West 299 344 11,000  Level Chicago Center
Fri 01:00:31 PM 41.5206 -86.6642 270° West 302 348 11,000 -823 Level Chicago Center
Fri 01:01:33 PM 41.5211 -86.7900 270° West 303 349 9,300 -1,500 Descending Chicago Center
Fri 01:02:35 PM 41.5164 -86.8911 266° West 278 320 7,900 -1,161 Descending Chicago Center
Fri 01:03:37 PM 41.5164 -86.9856 270° West 256 295 6,900 -968 Descending Chicago Center
Fri 01:04:39 PM 41.5172 -87.0997 271° West 256 295 5,900 -484 Descending Chicago Center
Fri 01:05:41 PM 41.5397 -87.1892 289° West 258 297 5,900 -290 Level Chicago Center
Fri 01:06:43 PM 41.5697 -87.2761 295° West 260 299 5,300 -774 Descending Chicago Center
Fri 01:07:45 PM 41.5961 -87.3619 292° West 255 293 4,300 -677 Descending Chicago Center
Fri 01:08:47 PM 41.6203 -87.4467 291° West 251 289 3,900 -194 Descending Chicago Center
Fri 01:09:49 PM 41.6500 -87.5472 292° West 247 284 3,900 -432 Level Chicago Center
Fri 01:10:52 PM 41.6906 -87.6189 307° West 251 289 3,000 -960 Descending Chicago Center
Fri 01:11:54 PM 41.7333 -87.6806 313° West 240 276 1,900 -677 Descending Chicago Center
Fri 01:12:56 PM 41.7769 -87.6792 North 211 243 1,600 -290 Descending Chicago Center
Fri 01:13:58 PM 41.8097 -87.7189 318° Northwest 171 197 1,300 -290 Descending Chicago Center
Fri 01:15:00 PM 41.7897 -87.7506 230° Southwest 154 177 1,000 -290 Descending Chicago Center
Fri 01:16:00 PM 41.7833 -87.7500 334° Northwest  Level FlightAware Approximate

Login

Don't have an account? Register now (free) for customized features, flight alerts, and more!